createdAt,value
2018-02-11T17:04:15.068Z,8.34
2018-02-11T17:05:14.802Z,8.3
2018-02-11T17:06:15.094Z,8.34
2018-02-11T17:07:15.109Z,8.36
2018-02-11T17:08:15.121Z,8.33
2018-02-11T17:09:15.145Z,8.41
2018-02-11T17:10:15.145Z,8.33
2018-02-11T17:11:14.876Z,8.33
2018-02-11T17:12:15.170Z,8.31
2018-02-11T17:13:15.463Z,8.37
2018-02-11T17:14:15.194Z,8.37
2018-02-11T17:15:15.212Z,8.33
2018-02-11T17:16:15.506Z,8.36
2018-02-11T17:17:15.232Z,8.36
2018-02-11T17:18:15.248Z,8.34
2018-02-11T17:19:15.258Z,8.33
2018-02-11T17:20:15.272Z,8.36
2018-02-11T17:21:15.283Z,8.34
2018-02-11T17:22:15.294Z,8.36
2018-02-11T17:23:15.027Z,8.38
2018-02-11T17:24:15.040Z,8.31
2018-02-11T17:25:15.334Z,8.38
2018-02-11T17:26:15.630Z,8.33
2018-02-11T17:27:15.645Z,8.33
2018-02-11T17:28:15.371Z,8.33
2018-02-11T17:29:15.674Z,8.37
2018-02-11T17:30:15.400Z,8.3
2018-02-11T17:31:15.128Z,8.34
2018-02-11T17:32:15.141Z,8.36
2018-02-11T17:33:15.153Z,8.34
2018-02-11T17:34:15.183Z,8.33
2018-02-11T17:35:15.464Z,8.3
2018-02-11T17:36:15.217Z,8.34
2018-02-11T17:37:15.484Z,8.28
2018-02-11T17:38:15.218Z,8.34
2018-02-11T17:39:15.791Z,8.34
2018-02-11T17:40:15.523Z,8.26
2018-02-11T17:41:15.822Z,8.31
2018-02-11T17:42:15.267Z,8.24
2018-02-11T17:43:15.858Z,8.2
2018-02-11T17:44:15.577Z,8.2
2018-02-11T17:45:15.587Z,8.2
2018-02-11T17:46:15.599Z,8.26
2018-02-11T17:47:15.944Z,8.26
2018-02-11T17:48:15.636Z,8.24
2018-02-11T17:49:15.687Z,8.27
2018-02-11T17:50:15.653Z,8.2
2018-02-11T17:51:15.671Z,8.23
2018-02-11T17:52:15.676Z,8.2
2018-02-11T17:53:15.687Z,8.13
2018-02-11T17:54:15.749Z,8.28
2018-02-11T17:55:15.827Z,8.13
2018-02-11T17:56:15.444Z,8.2
2018-02-11T17:57:15.736Z,8.2
2018-02-11T17:58:15.470Z,8.19
2018-02-11T17:59:15.531Z,8.12
2018-02-11T18:00:15.774Z,8.16
2018-02-11T18:01:15.787Z,8.18
2018-02-11T18:02:15.800Z,8.1
2018-02-11T18:03:16.093Z,8.13
2018-02-11T18:04:16.160Z,8.12
2018-02-11T18:05:15.557Z,8.16
2018-02-11T18:06:16.134Z,8.12
2018-02-11T18:07:15.584Z,8.13
2018-02-11T18:08:15.874Z,8.15
2018-02-11T18:09:15.888Z,8.05
2018-02-11T18:10:15.903Z,8.09
2018-02-11T18:11:15.634Z,8.01
2018-02-11T18:12:15.671Z,8.01
2018-02-11T18:13:15.936Z,8.03
2018-02-11T18:14:16.233Z,8.16
2018-02-11T18:15:15.961Z,8.12
2018-02-11T18:16:15.693Z,8.01
2018-02-11T18:17:15.991Z,8.01
2018-02-11T18:18:16.281Z,8.08
2018-02-11T18:19:15.729Z,8.05
2018-02-11T18:20:16.022Z,7.97
2018-02-11T18:21:16.035Z,8.05
2018-02-11T18:22:16.048Z,7.97
2018-02-11T18:23:16.344Z,8.03
2018-02-11T18:24:15.793Z,8.01
2018-02-11T18:25:16.085Z,7.93
2018-02-11T18:26:16.100Z,8.06
2018-02-11T18:27:16.110Z,8
2018-02-11T18:28:15.842Z,8.05
2018-02-11T18:29:16.142Z,7.91
2018-02-11T18:30:16.147Z,8.03
2018-02-11T18:31:16.439Z,7.94
2018-02-11T18:32:16.171Z,7.97
2018-02-11T18:33:15.904Z,8.05
2018-02-11T18:34:15.917Z,7.98
2018-02-11T18:35:15.931Z,8
2018-02-11T18:36:16.221Z,8.01
2018-02-11T18:37:16.517Z,7.98
2018-02-11T18:38:16.250Z,8.01
2018-02-11T18:39:16.049Z,7.91
2018-02-11T18:40:16.560Z,7.94
2018-02-11T18:41:16.287Z,7.91
2018-02-11T18:42:16.019Z,8.01
2018-02-11T18:43:16.384Z,8.05
2018-02-11T18:44:16.606Z,7.88
2018-02-11T18:45:16.338Z,7.98
2018-02-11T18:46:16.362Z,8.01
2018-02-11T18:47:16.361Z,7.93
2018-02-11T18:48:16.651Z,7.91
2018-02-11T18:49:16.385Z,7.9
2018-02-11T18:50:16.396Z,7.95
2018-02-11T18:51:16.409Z,7.95
2018-02-11T18:52:16.141Z,7.85
2018-02-11T18:53:16.432Z,7.95
2018-02-11T18:54:16.443Z,7.93
2018-02-11T18:55:16.739Z,7.94
2018-02-11T18:56:16.750Z,7.9
2018-02-11T18:57:16.766Z,7.9
2018-02-11T18:58:16.214Z,7.83
2018-02-11T18:59:16.510Z,7.8
2018-02-11T19:00:16.801Z,7.75
2018-02-11T19:01:16.819Z,7.77
2018-02-11T19:02:16.265Z,7.79
2018-02-11T19:03:16.557Z,7.79
2018-02-11T19:04:16.568Z,7.79
2018-02-11T19:05:16.582Z,7.79
2018-02-11T19:06:16.316Z,7.82
2018-02-11T19:07:16.886Z,7.79
2018-02-11T19:08:16.899Z,7.83
2018-02-11T19:09:16.911Z,7.76
2018-02-11T19:10:16.954Z,7.79
2018-02-11T19:11:16.654Z,7.79
2018-02-11T19:12:16.667Z,7.9
2018-02-11T19:13:16.961Z,7.8
2018-02-11T19:14:16.411Z,7.8
2018-02-11T19:15:16.704Z,7.82
2018-02-11T19:16:16.717Z,7.76
2018-02-11T19:17:16.728Z,7.77
2018-02-11T19:18:17.020Z,7.79
2018-02-11T19:19:16.471Z,7.82
2018-02-11T19:20:16.485Z,7.77
2018-02-11T19:21:17.058Z,7.76
2018-02-11T19:22:17.072Z,7.79
2018-02-11T19:23:17.084Z,7.76
2018-02-11T19:24:16.533Z,7.76
2018-02-11T19:25:17.110Z,7.76
2018-02-11T19:26:16.557Z,7.82
2018-02-11T19:27:16.852Z,7.8
2018-02-11T19:28:17.144Z,7.77
2018-02-11T19:29:16.883Z,7.73
2018-02-11T19:30:17.165Z,7.73
2018-02-11T19:31:16.899Z,7.76
2018-02-11T19:32:16.912Z,7.76
2018-02-11T19:33:17.204Z,7.73
2018-02-11T19:34:17.217Z,7.67
2018-02-11T19:35:17.227Z,7.69
2018-02-11T19:36:17.239Z,7.85
2018-02-11T19:37:16.982Z,7.7
2018-02-11T19:38:16.985Z,7.7
2018-02-11T19:39:16.998Z,7.66
2018-02-11T19:40:17.018Z,7.73
2018-02-11T19:41:16.742Z,7.7
2018-02-11T19:42:17.313Z,7.73
2018-02-11T19:43:17.325Z,7.72
2018-02-11T19:44:17.066Z,7.77
2018-02-11T19:45:17.225Z,7.72
2018-02-11T19:46:17.368Z,7.73
2018-02-11T19:47:17.092Z,7.76
2018-02-11T19:48:17.389Z,7.67
2018-02-11T19:49:16.848Z,7.7
2018-02-11T19:50:17.205Z,7.67
2018-02-11T19:51:17.141Z,7.77
2018-02-11T19:52:17.434Z,7.72
2018-02-11T19:53:17.180Z,7.7
2018-02-11T19:54:16.896Z,7.69
2018-02-11T19:55:17.522Z,7.73
2018-02-11T19:56:16.938Z,7.72
2018-02-11T19:57:16.934Z,7.73
2018-02-11T19:58:17.508Z,7.72
2018-02-11T19:59:17.237Z,7.76
2018-02-11T20:00:17.401Z,7.72
2018-02-11T20:01:17.545Z,7.75
2018-02-11T20:02:17.562Z,7.73
2018-02-11T20:03:17.287Z,7.72
2018-02-11T20:04:17.304Z,7.76
2018-02-11T20:05:17.641Z,7.75
2018-02-11T20:06:17.602Z,7.69
2018-02-11T20:07:17.054Z,7.75
2018-02-11T20:08:17.067Z,7.69
2018-02-11T20:09:17.645Z,7.7
2018-02-11T20:10:17.652Z,7.76
2018-02-11T20:11:17.676Z,7.73
2018-02-11T20:12:17.396Z,7.73
2018-02-11T20:13:17.407Z,7.73
2018-02-11T20:14:17.140Z,7.73
2018-02-11T20:15:17.488Z,7.76
2018-02-11T20:16:17.457Z,7.73
2018-02-11T20:17:17.461Z,7.67
2018-02-11T20:18:17.469Z,7.73
2018-02-11T20:19:17.493Z,7.73
2018-02-11T20:20:17.263Z,7.7
2018-02-11T20:21:17.788Z,7.58
2018-02-11T20:22:17.524Z,7.72
2018-02-11T20:23:17.924Z,7.66
2018-02-11T20:24:17.545Z,7.69
2018-02-11T20:25:17.323Z,7.58
2018-02-11T20:26:17.566Z,7.69
2018-02-11T20:27:17.296Z,7.69
2018-02-11T20:28:17.872Z,7.7
2018-02-11T20:29:17.326Z,7.73
2018-02-11T20:30:17.666Z,7.67
2018-02-11T20:31:17.348Z,7.7
2018-02-11T20:32:17.434Z,7.61
2018-02-11T20:33:17.935Z,7.63
2018-02-11T20:34:17.661Z,7.72
2018-02-11T20:35:17.737Z,7.73
2018-02-11T20:36:17.968Z,7.58
2018-02-11T20:37:17.418Z,7.76
2018-02-11T20:38:17.717Z,7.67
2018-02-11T20:39:17.726Z,7.72
2018-02-11T20:40:17.785Z,7.7
2018-02-11T20:41:17.755Z,7.66
2018-02-11T20:42:17.477Z,7.72
2018-02-11T20:43:17.786Z,7.72
2018-02-11T20:44:18.066Z,7.72
2018-02-11T20:45:17.848Z,7.7
2018-02-11T20:46:18.092Z,7.75
2018-02-11T20:47:17.821Z,7.67
2018-02-11T20:48:18.115Z,7.69
2018-02-11T20:49:18.151Z,7.76
2018-02-11T20:50:17.574Z,7.7
2018-02-11T20:51:17.865Z,7.69
2018-02-11T20:52:17.599Z,7.67
2018-02-11T20:53:17.610Z,7.73
2018-02-11T20:54:17.633Z,7.66
2018-02-11T20:55:17.644Z,7.77
2018-02-11T20:56:17.934Z,7.69
2018-02-11T20:57:17.940Z,7.79
2018-02-11T20:58:17.672Z,7.7
2018-02-11T20:59:17.964Z,7.69
2018-02-11T21:00:17.991Z,7.72
2018-02-11T21:01:17.987Z,7.7
2018-02-11T21:02:17.718Z,7.76
2018-02-11T21:03:18.015Z,7.7
2018-02-11T21:04:18.029Z,7.67
2018-02-11T21:05:18.041Z,7.77
2018-02-11T21:06:18.056Z,7.8
2018-02-11T21:07:18.342Z,7.67
2018-02-11T21:08:18.094Z,7.77
2018-02-11T21:09:17.803Z,7.7
2018-02-11T21:10:18.103Z,7.8
2018-02-11T21:11:18.397Z,7.83
2018-02-11T21:12:18.121Z,7.82
2018-02-11T21:13:17.853Z,7.8
2018-02-11T21:14:18.148Z,7.73
2018-02-11T21:15:18.156Z,7.8
2018-02-11T21:16:18.449Z,7.83
2018-02-11T21:17:18.180Z,7.83
2018-02-11T21:18:18.194Z,7.87
2018-02-11T21:19:18.498Z,7.76
2018-02-11T21:20:18.236Z,7.76
2018-02-11T21:21:18.511Z,7.79
2018-02-11T21:22:18.522Z,7.79
2018-02-11T21:23:18.256Z,7.79
2018-02-11T21:24:17.984Z,7.8
2018-02-11T21:25:18.288Z,7.82
2018-02-11T21:26:18.292Z,7.82
2018-02-11T21:27:18.026Z,7.76
2018-02-11T21:28:18.634Z,7.79
2018-02-11T21:29:18.330Z,7.83
2018-02-11T21:30:18.338Z,7.79
2018-02-11T21:31:18.351Z,7.79
2018-02-11T21:32:18.367Z,7.82
2018-02-11T21:33:18.381Z,7.76
2018-02-11T21:34:18.105Z,7.79
2018-02-11T21:35:18.679Z,7.77
2018-02-11T21:36:18.433Z,7.82
2018-02-11T21:37:18.711Z,7.85
2018-02-11T21:38:18.435Z,7.79
2018-02-11T21:39:18.165Z,7.79
2018-02-11T21:40:18.458Z,7.8
2018-02-11T21:41:18.188Z,7.77
2018-02-11T21:42:18.782Z,7.8
2018-02-11T21:43:18.497Z,7.76
2018-02-11T21:44:18.227Z,7.82
2018-02-11T21:45:18.519Z,7.77
2018-02-11T21:46:18.817Z,7.79
2018-02-11T21:47:18.830Z,7.8
2018-02-11T21:48:18.838Z,7.8
2018-02-11T21:49:18.287Z,7.83
2018-02-11T21:50:18.598Z,7.79
2018-02-11T21:51:18.595Z,7.82
2018-02-11T21:52:18.323Z,7.82
2018-02-11T21:53:18.899Z,7.72
2018-02-11T21:54:18.631Z,7.7
2018-02-11T21:55:18.639Z,7.76
2018-02-11T21:56:18.380Z,7.73
2018-02-11T21:57:18.668Z,7.76
2018-02-11T21:58:18.934Z,7.72
2018-02-11T21:59:18.971Z,7.72
2018-02-11T22:00:18.708Z,7.8
2018-02-11T22:01:18.763Z,7.7
2018-02-11T22:02:18.727Z,7.69
2018-02-11T22:03:18.738Z,7.7
2018-02-11T22:04:18.483Z,7.69
2018-02-11T22:05:18.764Z,7.75
2018-02-11T22:06:18.773Z,7.7
2018-02-11T22:07:18.504Z,7.72
2018-02-11T22:08:18.797Z,7.66
2018-02-11T22:09:18.809Z,7.66
2018-02-11T22:10:18.820Z,7.72
2018-02-11T22:11:19.165Z,7.73
2018-02-11T22:12:18.569Z,7.73
2018-02-11T22:13:18.857Z,7.77
2018-02-11T22:14:19.153Z,7.75
2018-02-11T22:15:18.881Z,7.67
2018-02-11T22:16:19.046Z,7.69
2018-02-11T22:17:19.187Z,7.77
2018-02-11T22:18:18.917Z,7.7
2018-02-11T22:19:18.648Z,7.73
2018-02-11T22:20:19.222Z,7.69
2018-02-11T22:21:19.006Z,7.67
2018-02-11T22:22:18.967Z,7.7
2018-02-11T22:23:18.978Z,7.7
2018-02-11T22:24:18.989Z,7.7
2018-02-11T22:25:19.286Z,7.75
2018-02-11T22:26:19.343Z,7.82
2018-02-11T22:27:19.027Z,7.69
2018-02-11T22:28:19.320Z,7.69
2018-02-11T22:29:19.338Z,7.69
2018-02-11T22:30:19.061Z,7.69
2018-02-11T22:31:18.850Z,7.67
2018-02-11T22:32:19.086Z,7.69
2018-02-11T22:33:19.104Z,7.67
2018-02-11T22:34:19.394Z,7.69
2018-02-11T22:35:19.403Z,7.73
2018-02-11T22:36:18.906Z,7.72
2018-02-11T22:37:18.867Z,7.72
2018-02-11T22:38:19.158Z,7.76
2018-02-11T22:39:19.170Z,7.73
2018-02-11T22:40:19.187Z,7.73
2018-02-11T22:41:19.245Z,7.63
2018-02-11T22:42:18.934Z,7.77
2018-02-11T22:43:19.504Z,7.7
2018-02-11T22:44:19.510Z,7.69
2018-02-11T22:45:19.242Z,7.61
2018-02-11T22:46:19.307Z,7.57
2018-02-11T22:47:19.546Z,7.61
2018-02-11T22:48:19.562Z,7.67
2018-02-11T22:49:19.571Z,7.67
2018-02-11T22:50:19.586Z,7.72
2018-02-11T22:51:19.037Z,7.7
2018-02-11T22:52:19.330Z,7.66
2018-02-11T22:53:19.622Z,7.63
2018-02-11T22:54:19.630Z,7.6
2018-02-11T22:55:19.086Z,7.6
2018-02-11T22:56:19.429Z,7.69
2018-02-11T22:57:19.388Z,7.69
2018-02-11T22:58:19.685Z,7.57
2018-02-11T22:59:19.416Z,7.66
2018-02-11T23:00:19.143Z,7.61
2018-02-11T23:01:19.247Z,7.61
2018-02-11T23:02:19.447Z,7.58
2018-02-11T23:03:19.461Z,7.69
2018-02-11T23:04:19.189Z,7.61
2018-02-11T23:05:19.481Z,7.58
2018-02-11T23:06:19.545Z,7.54
2018-02-11T23:07:19.547Z,7.53
2018-02-11T23:08:19.519Z,7.58
2018-02-11T23:09:19.813Z,7.6
2018-02-11T23:10:19.542Z,7.63
2018-02-11T23:11:19.557Z,7.66
2018-02-11T23:12:19.568Z,7.66
2018-02-11T23:13:19.581Z,7.57
2018-02-11T23:14:19.311Z,7.54
2018-02-11T23:15:19.320Z,7.51
2018-02-11T23:16:19.944Z,7.66
2018-02-11T23:17:19.913Z,7.45
2018-02-11T23:18:19.919Z,7.47
2018-02-11T23:19:19.930Z,7.47
2018-02-11T23:20:19.944Z,7.56
2018-02-11T23:21:19.724Z,7.48
2018-02-11T23:22:19.687Z,7.53
2018-02-11T23:23:19.698Z,7.53
2018-02-11T23:24:19.998Z,7.53
2018-02-11T23:25:19.443Z,7.51
2018-02-11T23:26:19.784Z,7.51
2018-02-11T23:27:19.746Z,7.51
2018-02-11T23:28:19.760Z,7.39
2018-02-11T23:29:19.492Z,7.5
2018-02-11T23:30:19.781Z,7.45
2018-02-11T23:31:19.795Z,7.45
2018-02-11T23:32:20.089Z,7.43
2018-02-11T23:33:19.826Z,7.4
2018-02-11T23:34:20.108Z,7.39
2018-02-11T23:35:19.844Z,7.39
2018-02-11T23:36:19.628Z,7.47
2018-02-11T23:37:19.585Z,7.39
2018-02-11T23:38:19.878Z,7.36
2018-02-11T23:39:20.172Z,7.47
2018-02-11T23:40:20.184Z,7.4
2018-02-11T23:41:20.192Z,7.4
2018-02-11T23:42:19.929Z,7.38
2018-02-11T23:43:19.938Z,7.42
2018-02-11T23:44:20.233Z,7.35
2018-02-11T23:45:19.964Z,7.38
2018-02-11T23:46:20.024Z,7.38
2018-02-11T23:47:19.987Z,7.29
2018-02-11T23:48:20.276Z,7.29
2018-02-11T23:49:20.010Z,7.32
2018-02-11T23:50:20.021Z,7.35
2018-02-11T23:51:20.362Z,7.36
2018-02-11T23:52:20.326Z,7.31
2018-02-11T23:53:20.056Z,7.28
2018-02-11T23:54:20.073Z,7.33
2018-02-11T23:55:20.092Z,7.29
2018-02-11T23:56:20.422Z,7.32
2018-02-11T23:57:20.104Z,7.33
2018-02-11T23:58:20.116Z,7.23
2018-02-11T23:59:20.126Z,7.24
